Inta, Russia
Current Conditions -  °F | °C
As of 3:00 PM on Wednesday 22 Oct 2014 (Local Time) from UUYY Reporting Station
Overcast Overcast  
Wind Chill: -5°   Ceiling: 6600
Heat Index: 10°   Visibility: 6mi
Dew Point:   Wind: 13mph
Humidity: 73%   Direction: 10°N
Pressure: 29.83"   Gusts: 20mph
Location:  66.04°N, 60.17°E
Report Text: UUYY 221200Z 01006G09MPS 9999 FEW016 OVC066 M12/M16 Q1010 TEMPO 2000 SN 01CLRD61 RMK QFE748/0998
Loading
Personal Weather Stations






























Interactive Weather Map
Tropical Storm Tracking
New forecast layout! Learn more

10-Day Weather Forecast

Advertisements
Track Severe Weather on mobile